createdAt,value
2018-10-12T00:01:16.376Z,63.71
2018-10-12T00:03:43.803Z,63.18
2018-10-12T00:06:11.240Z,62.34
2018-10-12T00:08:39.044Z,62.88
2018-10-12T00:11:06.483Z,62.51
2018-10-12T00:13:33.905Z,62.13
2018-10-12T00:16:01.343Z,62.04
2018-10-12T00:18:28.778Z,61.71
2018-10-12T00:20:56.204Z,62.11
2018-10-12T00:23:23.640Z,62.06
2018-10-12T00:25:51.072Z,61.46
2018-10-12T00:28:18.519Z,61.52
2018-10-12T00:30:45.967Z,61.80
2018-10-12T00:33:13.392Z,61.26
2018-10-12T00:35:40.812Z,61.12
2018-10-12T00:38:08.248Z,61.11
2018-10-12T00:40:35.681Z,60.95
2018-10-12T00:43:03.116Z,60.03
2018-10-12T00:45:30.527Z,60.02
2018-10-12T00:48:01.753Z,60.47
2018-10-12T00:50:30.743Z,60.38
2018-10-12T00:52:58.268Z,60.29
2018-10-12T00:55:26.588Z,60.52
2018-10-12T00:57:54.065Z,60.40
2018-10-12T01:00:21.603Z,60.18
2018-10-12T01:02:49.064Z,59.75
2018-10-12T01:05:16.508Z,59.97
2018-10-12T01:07:43.936Z,59.91
2018-10-12T01:10:11.363Z,60.14
2018-10-12T01:12:38.834Z,60.07
2018-10-12T01:15:06.264Z,60.96
2018-10-12T01:17:34.319Z,60.68
2018-10-12T01:20:01.769Z,61.39
2018-10-12T01:22:29.852Z,60.52
2018-10-12T01:24:58.335Z,60.54
2018-10-12T01:27:26.028Z,61.02
2018-10-12T01:29:53.856Z,60.94
2018-10-12T01:32:26.748Z,60.95
2018-10-12T01:34:54.552Z,61.32
2018-10-12T01:37:21.988Z,61.39
2018-10-12T01:39:49.454Z,62.16
2018-10-12T01:42:16.856Z,61.83
2018-10-12T01:44:44.272Z,61.27
2018-10-12T01:47:11.695Z,61.47
2018-10-12T01:49:39.484Z,61.96
2018-10-12T01:52:06.912Z,61.83
2018-10-12T01:54:34.345Z,62.20
2018-10-12T01:57:01.786Z,62.55
2018-10-12T01:59:29.205Z,62.73
2018-10-12T02:01:56.644Z,64.07
2018-10-12T02:04:24.072Z,63.68
2018-10-12T02:06:51.509Z,63.67
2018-10-12T02:09:18.935Z,64.38
2018-10-12T02:11:46.402Z,64.36
2018-10-12T02:14:13.840Z,64.41
2018-10-12T02:16:41.260Z,63.92
2018-10-12T02:19:08.689Z,64.22
2018-10-12T02:21:36.114Z,64.47
2018-10-12T02:24:03.872Z,64.38
2018-10-12T02:26:31.292Z,64.27
2018-10-12T02:28:58.996Z,63.78
2018-10-12T02:31:26.420Z,64.00
2018-10-12T02:33:53.853Z,65.01
2018-10-12T02:36:21.284Z,64.94
2018-10-12T02:38:48.715Z,65.27
2018-10-12T02:41:16.144Z,65.14
2018-10-12T02:43:43.570Z,65.44
2018-10-12T02:46:11.022Z,65.26
2018-10-12T02:48:38.459Z,65.49
2018-10-12T02:51:05.872Z,65.64
2018-10-12T02:53:33.307Z,65.90
2018-10-12T02:56:00.741Z,65.06
2018-10-12T02:58:28.171Z,65.64
2018-10-12T03:00:55.596Z,64.89
2018-10-12T03:03:23.027Z,65.24
2018-10-12T03:05:50.457Z,65.53
2018-10-12T03:08:17.886Z,65.36
2018-10-12T03:10:45.447Z,65.60
2018-10-12T03:13:12.880Z,66.41
2018-10-12T03:15:40.317Z,66.08
2018-10-12T03:18:07.753Z,66.28
2018-10-12T03:20:35.176Z,66.20
2018-10-12T03:23:02.623Z,66.25
2018-10-12T03:25:30.045Z,66.83
2018-10-12T03:27:57.667Z,66.71
2018-10-12T03:30:25.353Z,66.84
2018-10-12T03:32:52.777Z,66.54
2018-10-12T03:35:20.207Z,66.39
2018-10-12T03:37:47.627Z,65.90
2018-10-12T03:40:15.061Z,66.42
2018-10-12T03:42:42.495Z,66.57
2018-10-12T03:45:09.919Z,65.44
2018-10-12T03:47:37.345Z,66.00
2018-10-12T03:50:04.983Z,65.32
2018-10-12T03:52:32.416Z,65.37
2018-10-12T03:54:59.845Z,66.29
2018-10-12T03:57:27.272Z,65.54
2018-10-12T03:59:54.713Z,65.73
2018-10-12T04:02:22.143Z,65.34
2018-10-12T04:04:49.572Z,65.61
2018-10-12T04:07:17.014Z,66.09
2018-10-12T04:09:44.440Z,66.29
2018-10-12T04:12:11.883Z,65.89
2018-10-12T04:14:39.315Z,65.99
2018-10-12T04:17:06.739Z,66.13
2018-10-12T04:19:34.168Z,66.39
2018-10-12T04:22:01.600Z,65.82
2018-10-12T04:24:29.084Z,66.28
2018-10-12T04:26:56.503Z,66.59
2018-10-12T04:29:23.932Z,66.66
2018-10-12T04:31:51.360Z,66.98
2018-10-12T04:34:18.801Z,66.98
2018-10-12T04:36:46.244Z,66.57
2018-10-12T04:39:13.664Z,66.42
2018-10-12T04:41:41.098Z,66.68
2018-10-12T04:44:08.540Z,67.10
2018-10-12T04:46:38.246Z,67.54
2018-10-12T04:49:05.677Z,67.75
2018-10-12T04:51:34.660Z,67.34
2018-10-12T04:54:02.307Z,67.04
2018-10-12T04:56:29.726Z,67.51
2018-10-12T04:58:57.152Z,67.72
2018-10-12T05:01:24.670Z,68.13
2018-10-12T05:03:52.109Z,67.92
2018-10-12T05:06:19.595Z,67.72
2018-10-12T05:08:47.028Z,67.61
2018-10-12T05:11:14.464Z,67.65
2018-10-12T05:13:41.908Z,67.65
2018-10-12T05:16:09.331Z,67.32
2018-10-12T05:18:36.818Z,67.52
2018-10-12T05:21:04.615Z,67.56
2018-10-12T05:23:32.061Z,67.72
2018-10-12T05:26:00.040Z,67.47
2018-10-12T05:28:28.239Z,67.19
2018-10-12T05:30:55.868Z,67.46
2018-10-12T05:33:23.367Z,68.24
2018-10-12T05:35:50.800Z,67.04
2018-10-12T05:38:18.550Z,67.43
2018-10-12T05:40:45.980Z,67.62
2018-10-12T05:43:13.566Z,66.90
2018-10-12T05:45:40.936Z,66.86
2018-10-12T05:48:08.364Z,66.75
2018-10-12T05:50:35.864Z,66.68
2018-10-12T05:53:03.296Z,66.52
2018-10-12T05:55:30.764Z,65.92
2018-10-12T05:57:58.239Z,66.00
2018-10-12T06:00:25.668Z,65.98
2018-10-12T06:02:53.096Z,65.90
2018-10-12T06:05:20.720Z,65.77
2018-10-12T06:07:48.156Z,65.87
2018-10-12T06:10:15.588Z,65.96
2018-10-12T06:12:43.020Z,64.98
2018-10-12T06:15:10.444Z,65.32
2018-10-12T06:17:37.870Z,64.93
2018-10-12T06:20:05.338Z,64.83
2018-10-12T06:22:32.755Z,64.94
2018-10-12T06:25:00.180Z,64.57
2018-10-12T06:27:27.608Z,63.99
2018-10-12T06:29:55.096Z,64.37
2018-10-12T06:32:22.644Z,63.97
2018-10-12T06:34:50.083Z,64.11
2018-10-12T06:37:17.567Z,63.73
2018-10-12T06:39:44.992Z,62.70
2018-10-12T06:42:12.419Z,62.88
2018-10-12T06:44:39.844Z,62.95
2018-10-12T06:47:07.276Z,62.58
2018-10-12T06:49:34.723Z,62.38
2018-10-12T06:52:02.147Z,61.70
2018-10-12T06:54:29.584Z,61.56
2018-10-12T06:56:57.011Z,61.21
2018-10-12T06:59:24.443Z,60.78
2018-10-12T07:01:51.871Z,60.92
2018-10-12T07:04:19.396Z,60.44
2018-10-12T07:06:46.827Z,60.54
2018-10-12T07:09:14.477Z,60.36
2018-10-12T07:11:42.022Z,60.17
2018-10-12T07:14:09.572Z,59.63
2018-10-12T07:16:36.989Z,59.66
2018-10-12T07:19:04.412Z,59.20
2018-10-12T07:21:31.983Z,58.62
2018-10-12T07:23:59.405Z,58.85
2018-10-12T07:26:26.836Z,58.33
2018-10-12T07:28:54.265Z,57.44
2018-10-12T07:31:21.742Z,57.05
2018-10-12T07:33:49.172Z,57.35
2018-10-12T07:36:16.607Z,57.16
2018-10-12T07:38:44.037Z,57.43
2018-10-12T07:41:11.467Z,56.53
2018-10-12T07:43:38.930Z,56.17
2018-10-12T07:46:06.368Z,56.00
2018-10-12T07:48:33.792Z,55.64
2018-10-12T07:51:01.224Z,55.72
2018-10-12T07:53:28.657Z,55.64
2018-10-12T07:55:56.110Z,54.89
2018-10-12T07:58:23.568Z,54.60
2018-10-12T08:00:50.992Z,54.64
2018-10-12T08:03:18.415Z,54.54
2018-10-12T08:05:45.847Z,54.43
2018-10-12T08:08:13.387Z,54.25
2018-10-12T08:10:40.829Z,53.90
2018-10-12T08:13:08.255Z,53.26
2018-10-12T08:15:35.691Z,52.89
2018-10-12T08:18:03.124Z,52.01
2018-10-12T08:20:30.649Z,52.23
2018-10-12T08:22:58.031Z,51.99
2018-10-12T08:25:25.463Z,51.54
2018-10-12T08:27:53.144Z,51.09
2018-10-12T08:30:20.629Z,50.61
2018-10-12T08:32:48.061Z,50.63
2018-10-12T08:35:15.488Z,51.05
2018-10-12T08:37:42.956Z,50.86
2018-10-12T08:40:10.379Z,49.81
2018-10-12T08:42:37.897Z,49.75
2018-10-12T08:45:05.292Z,50.21
2018-10-12T08:47:32.732Z,49.74
2018-10-12T08:50:00.161Z,49.07
2018-10-12T08:52:27.637Z,48.59
2018-10-12T08:54:55.191Z,48.87
2018-10-12T08:57:22.632Z,47.77
2018-10-12T08:59:50.061Z,47.10
2018-10-12T09:02:17.497Z,47.96
2018-10-12T09:04:44.924Z,47.07
2018-10-12T09:07:12.363Z,47.60
2018-10-12T09:09:39.839Z,48.35
2018-10-12T09:12:07.272Z,48.12
2018-10-12T09:14:34.720Z,47.39
2018-10-12T09:17:02.151Z,46.46
2018-10-12T09:19:29.580Z,45.90
2018-10-12T09:21:57.210Z,46.68
2018-10-12T09:24:24.593Z,45.80
2018-10-12T09:26:52.018Z,46.03
2018-10-12T09:29:19.492Z,45.52
2018-10-12T09:31:46.922Z,45.01
2018-10-12T09:34:14.356Z,45.44
2018-10-12T09:36:41.864Z,44.44
2018-10-12T09:39:09.227Z,45.27
2018-10-12T09:41:36.691Z,44.23
2018-10-12T09:44:04.123Z,43.93
2018-10-12T09:46:31.559Z,43.56
2018-10-12T09:48:58.992Z,43.36
2018-10-12T09:51:26.508Z,43.58
2018-10-12T09:53:53.956Z,43.66
2018-10-12T09:56:21.384Z,43.02
2018-10-12T09:58:48.808Z,43.09
2018-10-12T10:01:21.668Z,43.05
2018-10-12T10:03:54.438Z,42.12
2018-10-12T10:06:21.865Z,42.77
2018-10-12T10:08:49.452Z,42.35
2018-10-12T10:11:16.711Z,42.21
2018-10-12T10:13:44.175Z,42.28
2018-10-12T10:16:11.556Z,42.10
2018-10-12T10:18:38.985Z,41.36
2018-10-12T10:21:06.416Z,41.18
2018-10-12T10:23:33.861Z,42.02
2018-10-12T10:26:01.436Z,41.47
2018-10-12T10:28:28.898Z,41.47
2018-10-12T10:30:56.346Z,41.06
2018-10-12T10:33:23.775Z,41.17
2018-10-12T10:35:51.220Z,40.47
2018-10-12T10:38:18.643Z,40.84
2018-10-12T10:40:46.135Z,41.02
2018-10-12T10:43:13.562Z,40.67
2018-10-12T10:45:41.019Z,39.94
2018-10-12T10:48:08.435Z,40.25
2018-10-12T10:50:35.857Z,40.94
2018-10-12T10:53:03.271Z,40.55
2018-10-12T10:55:30.708Z,40.48
2018-10-12T10:57:58.128Z,40.06
2018-10-12T11:00:25.595Z,41.32
2018-10-12T11:02:53.021Z,40.67
2018-10-12T11:05:20.439Z,40.47
2018-10-12T11:07:47.865Z,40.63
2018-10-12T11:10:15.315Z,40.31
2018-10-12T11:12:42.816Z,40.74
2018-10-12T11:15:10.168Z,39.98
2018-10-12T11:17:37.609Z,39.95
2018-10-12T11:20:05.036Z,39.87
2018-10-12T11:22:32.448Z,40.38
2018-10-12T11:24:59.880Z,39.96
2018-10-12T11:27:27.299Z,40.15
2018-10-12T11:29:54.741Z,40.20
2018-10-12T11:32:22.161Z,39.46
2018-10-12T11:34:49.581Z,39.80
2018-10-12T11:37:17.004Z,39.42
2018-10-12T11:39:44.442Z,40.19
2018-10-12T11:42:11.891Z,39.72
2018-10-12T11:44:39.327Z,39.32
2018-10-12T11:47:06.731Z,39.04
2018-10-12T11:49:34.156Z,38.81
2018-10-12T11:52:01.639Z,39.83
2018-10-12T11:54:28.994Z,39.79
2018-10-12T11:56:56.412Z,38.90
2018-10-12T11:59:24.416Z,39.19
2018-10-12T12:01:51.841Z,39.12
2018-10-12T12:04:19.432Z,39.04
2018-10-12T12:06:46.848Z,38.44
2018-10-12T12:09:14.275Z,38.53
2018-10-12T12:11:41.716Z,38.92
2018-10-12T12:14:09.143Z,38.93
2018-10-12T12:16:36.566Z,38.52
2018-10-12T12:19:04.008Z,38.79
2018-10-12T12:21:31.428Z,38.57
2018-10-12T12:23:58.882Z,38.78
2018-10-12T12:26:26.317Z,38.37
2018-10-12T12:28:53.733Z,38.33
2018-10-12T12:31:21.163Z,38.63
2018-10-12T12:33:48.580Z,38.59
2018-10-12T12:36:16.189Z,38.74
2018-10-12T12:38:44.140Z,38.45
2018-10-12T12:41:12.115Z,38.73
2018-10-12T12:43:39.548Z,38.64
2018-10-12T12:46:06.963Z,39.13
2018-10-12T12:48:34.685Z,38.51
2018-10-12T12:51:01.811Z,38.08
2018-10-12T12:53:29.232Z,38.77
2018-10-12T12:55:56.653Z,38.48
2018-10-12T12:58:24.133Z,39.03
2018-10-12T13:00:51.592Z,38.29
2018-10-12T13:03:18.973Z,38.71
2018-10-12T13:05:46.391Z,38.87
2018-10-12T13:08:13.847Z,38.28
2018-10-12T13:10:41.507Z,38.71
2018-10-12T13:13:08.923Z,38.37
2018-10-12T13:15:36.624Z,38.56
2018-10-12T13:18:04.048Z,38.53
2018-10-12T13:20:31.568Z,38.86
2018-10-12T13:22:58.975Z,38.60
2018-10-12T13:25:26.412Z,38.70
2018-10-12T13:27:53.802Z,38.24
2018-10-12T13:30:21.223Z,38.91
2018-10-12T13:32:48.631Z,39.05
2018-10-12T13:35:16.051Z,38.66
2018-10-12T13:37:43.525Z,39.51
2018-10-12T13:40:10.897Z,39.52
2018-10-12T13:42:38.319Z,39.24
2018-10-12T13:45:05.744Z,38.64
2018-10-12T13:47:33.172Z,39.21
2018-10-12T13:50:00.588Z,39.84
2018-10-12T13:52:28.002Z,39.14
2018-10-12T13:54:55.411Z,38.91
2018-10-12T13:57:22.848Z,39.16
2018-10-12T13:59:50.268Z,39.06
2018-10-12T14:02:17.696Z,39.24
2018-10-12T14:04:45.121Z,39.42
2018-10-12T14:07:12.548Z,38.73
2018-10-12T14:09:39.968Z,39.36
2018-10-12T14:12:07.390Z,39.21
2018-10-12T14:14:34.798Z,39.34
2018-10-12T14:17:02.206Z,39.58
2018-10-12T14:19:29.672Z,39.24
2018-10-12T14:21:57.068Z,39.26
2018-10-12T14:24:24.480Z,39.96
2018-10-12T14:26:51.970Z,39.54
2018-10-12T14:29:19.308Z,39.45
2018-10-12T14:31:46.727Z,38.83
2018-10-12T14:34:14.144Z,39.64
2018-10-12T14:36:41.567Z,39.39
2018-10-12T14:39:09.256Z,40.09
2018-10-12T14:41:36.925Z,39.58
2018-10-12T14:44:04.555Z,39.93
2018-10-12T14:46:31.864Z,40.68
2018-10-12T14:48:59.296Z,40.01
2018-10-12T14:51:26.817Z,40.18
2018-10-12T14:53:54.183Z,40.21
2018-10-12T14:56:21.601Z,40.19
2018-10-12T14:58:49.041Z,39.64
2018-10-12T15:01:16.444Z,40.46
2018-10-12T15:03:43.875Z,40.36
2018-10-12T15:06:11.291Z,40.94
2018-10-12T15:08:38.716Z,40.37
2018-10-12T15:11:06.141Z,40.47
2018-10-12T15:13:33.563Z,41.07
2018-10-12T15:16:00.990Z,41.29
2018-10-12T15:18:28.413Z,41.26
2018-10-12T15:20:55.867Z,41.05
2018-10-12T15:23:23.257Z,41.67
2018-10-12T15:25:50.668Z,41.59
2018-10-12T15:28:18.110Z,41.96
2018-10-12T15:30:45.520Z,42.18
2018-10-12T15:33:12.940Z,41.90
2018-10-12T15:35:40.355Z,42.49
2018-10-12T15:38:07.802Z,42.08
2018-10-12T15:40:35.216Z,42.20
2018-10-12T15:43:02.743Z,42.03
2018-10-12T15:45:30.063Z,42.25
2018-10-12T15:47:57.501Z,42.60
2018-10-12T15:50:24.920Z,43.15
2018-10-12T15:52:52.348Z,43.10
2018-10-12T15:55:19.760Z,43.48
2018-10-12T15:57:47.189Z,43.33
2018-10-12T16:00:14.608Z,44.26
2018-10-12T16:02:42.075Z,44.29
2018-10-12T16:05:09.484Z,45.03
2018-10-12T16:07:36.904Z,44.56
2018-10-12T16:10:04.311Z,45.51
2018-10-12T16:12:31.744Z,44.84
2018-10-12T16:14:59.164Z,45.25
2018-10-12T16:17:26.588Z,45.57
2018-10-12T16:19:54.018Z,45.18
2018-10-12T16:22:21.493Z,45.36
2018-10-12T16:24:48.868Z,46.49
2018-10-12T16:27:16.297Z,46.34
2018-10-12T16:29:43.715Z,45.73
2018-10-12T16:32:11.136Z,46.71
2018-10-12T16:34:38.570Z,46.10
2018-10-12T16:37:06.010Z,46.16
2018-10-12T16:39:33.423Z,47.54
2018-10-12T16:42:00.844Z,46.89
2018-10-12T16:44:28.267Z,46.76
2018-10-12T16:46:55.692Z,47.69
2018-10-12T16:49:23.113Z,47.33
2018-10-12T16:51:50.547Z,47.70
2018-10-12T16:54:17.987Z,48.32
2018-10-12T16:56:45.401Z,48.80
2018-10-12T16:59:12.832Z,48.32
2018-10-12T17:01:40.248Z,48.15
2018-10-12T17:04:07.705Z,48.82
2018-10-12T17:06:35.110Z,49.12
2018-10-12T17:09:02.551Z,49.28
2018-10-12T17:11:29.999Z,48.58
2018-10-12T17:13:57.432Z,48.70
2018-10-12T17:16:24.863Z,48.76
2018-10-12T17:18:52.294Z,49.35
2018-10-12T17:21:19.712Z,49.89
2018-10-12T17:23:47.144Z,49.96
2018-10-12T17:26:14.565Z,49.96
2018-10-12T17:28:41.988Z,49.74
2018-10-12T17:31:09.417Z,49.15
2018-10-12T17:33:36.861Z,49.21
2018-10-12T17:36:04.283Z,50.08
2018-10-12T17:38:31.710Z,49.59
2018-10-12T17:40:59.131Z,50.89
2018-10-12T17:43:26.560Z,51.51
2018-10-12T17:45:53.984Z,51.57
2018-10-12T17:48:21.410Z,52.97
2018-10-12T17:50:48.851Z,52.53
2018-10-12T17:53:16.278Z,53.79
2018-10-12T17:55:43.704Z,53.78
2018-10-12T17:58:11.131Z,54.78
2018-10-12T18:00:38.557Z,54.06
2018-10-12T18:03:05.996Z,53.59
2018-10-12T18:05:33.444Z,52.83
2018-10-12T18:08:00.885Z,53.33
2018-10-12T18:10:28.308Z,53.47
2018-10-12T18:12:55.737Z,53.52
2018-10-12T18:15:23.485Z,54.08
2018-10-12T18:17:50.927Z,54.61
2018-10-12T18:20:18.345Z,55.54
2018-10-12T18:22:45.767Z,54.50
2018-10-12T18:25:13.231Z,55.08
2018-10-12T18:27:40.653Z,55.46
2018-10-12T18:30:08.081Z,56.01
2018-10-12T18:32:35.504Z,55.94
2018-10-12T18:35:02.944Z,56.32
2018-10-12T18:37:30.377Z,57.13
2018-10-12T18:39:57.800Z,57.89
2018-10-12T18:42:25.225Z,57.83
2018-10-12T18:44:52.654Z,57.50
2018-10-12T18:47:20.075Z,57.43
2018-10-12T18:49:47.552Z,58.24
2018-10-12T18:52:14.977Z,58.15
2018-10-12T18:54:42.400Z,58.93
2018-10-12T18:57:09.820Z,58.42
2018-10-12T18:59:37.282Z,58.34
2018-10-12T19:02:04.677Z,57.24
2018-10-12T19:04:32.402Z,56.87
2018-10-12T19:06:59.771Z,56.78
2018-10-12T19:09:27.207Z,57.02
2018-10-12T19:11:54.708Z,56.94
2018-10-12T19:14:22.137Z,56.98
2018-10-12T19:16:49.545Z,57.04
2018-10-12T19:19:16.968Z,56.76
2018-10-12T19:21:44.404Z,56.17
2018-10-12T19:24:11.909Z,56.63
2018-10-12T19:26:39.275Z,56.93
2018-10-12T19:29:06.685Z,57.42
2018-10-12T19:31:34.288Z,57.96
2018-10-12T19:34:01.543Z,57.68
2018-10-12T19:36:28.976Z,57.60
2018-10-12T19:38:56.409Z,57.66
2018-10-12T19:41:23.823Z,57.22
2018-10-12T19:43:51.244Z,57.17
2018-10-12T19:46:18.688Z,57.92
2018-10-12T19:48:46.125Z,58.52
2018-10-12T19:51:13.554Z,58.33
2018-10-12T19:53:40.973Z,58.24
2018-10-12T19:56:08.517Z,58.32
2018-10-12T19:58:35.972Z,58.83
2018-10-12T20:01:03.404Z,58.91
2018-10-12T20:03:30.823Z,58.27
2018-10-12T20:05:58.252Z,58.40
2018-10-12T20:08:25.689Z,58.12
2018-10-12T20:10:53.127Z,58.63
2018-10-12T20:13:20.543Z,59.27
2018-10-12T20:15:47.971Z,59.61
2018-10-12T20:18:15.398Z,59.61
2018-10-12T20:20:42.831Z,60.56
2018-10-12T20:23:10.247Z,60.57
2018-10-12T20:25:37.683Z,60.70
2018-10-12T20:28:05.114Z,60.96
2018-10-12T20:30:32.536Z,60.47
2018-10-12T20:32:59.971Z,60.69
2018-10-12T20:35:27.403Z,60.21
2018-10-12T20:37:54.825Z,60.31
2018-10-12T20:40:22.264Z,59.66
2018-10-12T20:42:49.684Z,59.80
2018-10-12T20:45:23.606Z,60.59
2018-10-12T20:47:51.079Z,61.04
2018-10-12T20:50:18.503Z,60.96
2018-10-12T20:52:45.936Z,61.29
2018-10-12T20:55:13.356Z,60.91
2018-10-12T20:57:48.545Z,60.46
2018-10-12T21:00:16.935Z,60.96
2018-10-12T21:02:44.329Z,60.53
2018-10-12T21:05:12.181Z,60.87
2018-10-12T21:07:39.608Z,59.76
2018-10-12T21:10:07.446Z,60.26
2018-10-12T21:12:34.838Z,60.47
2018-10-12T21:15:02.257Z,61.42
2018-10-12T21:17:29.724Z,61.61
2018-10-12T21:19:57.144Z,61.90
2018-10-12T21:22:24.576Z,61.68
2018-10-12T21:24:52.007Z,61.68
2018-10-12T21:27:19.450Z,61.56
2018-10-12T21:29:46.864Z,61.75
2018-10-12T21:32:14.320Z,61.78
2018-10-12T21:34:41.802Z,62.35
2018-10-12T21:37:09.233Z,61.43
2018-10-12T21:39:36.655Z,61.22
2018-10-12T21:42:04.190Z,61.35
2018-10-12T21:44:31.588Z,62.05
2018-10-12T21:46:59.020Z,61.42
2018-10-12T21:49:26.445Z,62.03
2018-10-12T21:51:53.877Z,62.28
2018-10-12T21:54:21.292Z,62.65
2018-10-12T21:56:48.733Z,63.32
2018-10-12T21:59:16.180Z,63.16
2018-10-12T22:01:43.622Z,62.96
2018-10-12T22:04:11.049Z,62.70
2018-10-12T22:06:38.476Z,62.85
2018-10-12T22:09:06.604Z,63.43
2018-10-12T22:11:34.048Z,62.81
2018-10-12T22:14:01.481Z,63.86
2018-10-12T22:16:28.887Z,63.56
2018-10-12T22:18:56.309Z,63.97
2018-10-12T22:21:23.731Z,63.18
2018-10-12T22:23:51.157Z,63.79
2018-10-12T22:26:18.636Z,63.74
2018-10-12T22:28:46.016Z,63.69
2018-10-12T22:31:13.448Z,64.06
2018-10-12T22:33:40.873Z,64.14
2018-10-12T22:36:08.293Z,64.43
2018-10-12T22:38:35.720Z,64.90
2018-10-12T22:41:03.148Z,64.77
2018-10-12T22:43:30.603Z,64.69
2018-10-12T22:45:58.031Z,64.83
2018-10-12T22:48:25.464Z,65.51
2018-10-12T22:50:52.888Z,64.36
2018-10-12T22:53:20.311Z,64.49
2018-10-12T22:55:47.735Z,64.33
2018-10-12T22:58:15.181Z,64.60
2018-10-12T23:00:42.618Z,65.03
2018-10-12T23:03:10.045Z,65.52
2018-10-12T23:05:37.468Z,65.04
2018-10-12T23:08:04.916Z,65.32
2018-10-12T23:10:32.343Z,66.83
2018-10-12T23:12:59.773Z,66.58
2018-10-12T23:15:27.199Z,66.85
2018-10-12T23:17:54.645Z,66.49
2018-10-12T23:20:22.067Z,66.33
2018-10-12T23:22:49.507Z,66.74
2018-10-12T23:25:16.936Z,66.30
2018-10-12T23:27:44.364Z,66.45
2018-10-12T23:30:11.785Z,66.84
2018-10-12T23:32:39.212Z,66.34
2018-10-12T23:35:06.636Z,66.58
2018-10-12T23:37:34.081Z,65.67
2018-10-12T23:40:01.527Z,65.63
2018-10-12T23:42:29.003Z,66.52
2018-10-12T23:44:56.445Z,65.62
2018-10-12T23:47:23.965Z,65.88
2018-10-12T23:49:51.336Z,65.69
2018-10-12T23:52:18.763Z,65.50
2018-10-12T23:54:46.463Z,66.16
2018-10-12T23:57:13.883Z,65.42
2018-10-12T23:59:41.325Z,65.80
